Time;durP1;ratioP1;P1;durP2;ratioP2;P2;SDS_P1;SDS_P2;PMS_P1;PMS_P2;Temp;Humidity;BMP_temperature;BMP_pressure;BME280_temperature;BME280_humidity;BME280_pressure;Samples;Min_cycle;Max_cycle;Signal;HPM_P1;HPM_P2
2021/09/17 00:02:19;;;;;;;12.60;6.25;;;23.70;96.70;;;;;;4898031;29;20066;-78
2021/09/17 00:08:55;;;;;;;8.23;5.95;;;23.80;96.70;;;;;;4909693;29;20054;-77
2021/09/17 00:11:24;;;;;;;10.07;6.10;;;24.00;96.70;;;;;;4915083;29;20410;-77
2021/09/17 00:13:52;;;;;;;15.23;6.40;;;24.10;96.70;;;;;;4887035;29;20480;-78
2021/09/17 00:16:20;;;;;;;20.15;7.50;;;24.10;96.70;;;;;;4884354;29;20058;-78
2021/09/17 00:18:49;;;;;;;11.35;6.28;;;24.00;96.70;;;;;;4911903;29;20484;-77
2021/09/17 00:25:25;;;;;;;13.10;6.40;;;23.80;96.70;;;;;;4909178;29;20107;-78
2021/09/17 00:28:09;;;;;;;12.15;5.68;;;23.80;96.70;;;;;;4892152;29;20048;-77
2021/09/17 00:30:38;;;;;;;10.88;5.65;;;23.70;96.70;;;;;;4916200;29;20130;-77
2021/09/17 00:33:06;;;;;;;11.85;6.28;;;23.90;96.70;;;;;;4909920;29;20054;-77
2021/09/17 00:35:35;;;;;;;12.55;6.38;;;24.00;96.70;;;;;;4909981;29;20064;-78
2021/09/17 00:38:04;;;;;;;9.73;5.95;;;24.00;96.70;;;;;;4911406;29;20048;-78
2021/09/17 00:40:34;;;;;;;11.10;5.68;;;24.00;96.70;;;;;;4914482;29;20063;-78
2021/09/17 00:43:03;;;;;;;10.80;5.82;;;24.00;96.70;;;;;;4884999;29;20055;-77
2021/09/17 00:45:35;;;;;;;7.18;5.18;;;24.10;96.70;;;;;;4901815;29;20099;-77
2021/09/17 00:48:05;;;;;;;11.45;5.35;;;24.10;96.70;;;;;;4912045;29;20067;-78
2021/09/17 00:50:35;;;;;;;11.02;6.38;;;24.10;96.70;;;;;;4877181;29;20051;-77
2021/09/17 00:53:04;;;;;;;8.30;5.47;;;24.10;96.70;;;;;;4897201;29;20083;-78
2021/09/17 00:55:35;;;;;;;11.52;6.28;;;24.10;96.70;;;;;;4895938;29;20052;-77
2021/09/17 00:58:04;;;;;;;10.02;6.10;;;24.10;96.70;;;;;;4911209;29;20040;-77
2021/09/17 01:00:32;;;;;;;9.65;5.55;;;24.00;96.70;;;;;;4890613;29;20040;-78
2021/09/17 01:03:00;;;;;;;9.15;5.63;;;24.00;96.70;;;;;;4886586;29;20162;-78
2021/09/17 01:05:28;;;;;;;10.45;5.57;;;24.00;96.70;;;;;;4914058;29;20039;-78
2021/09/17 01:07:57;;;;;;;9.90;6.10;;;24.00;96.70;;;;;;4894920;29;20037;-75
2021/09/17 01:10:28;;;;;;;8.80;5.40;;;23.90;96.70;;;;;;4907070;29;20036;-75
2021/09/17 01:12:58;;;;;;;8.77;5.15;;;23.90;96.70;;;;;;4916084;29;20446;-75
2021/09/17 01:15:27;;;;;;;12.25;5.32;;;23.90;96.70;;;;;;4907042;29;20059;-75
2021/09/17 01:17:55;;;;;;;8.68;4.93;;;23.90;96.70;;;;;;4909828;29;20040;-75
2021/09/17 01:20:23;;;;;;;10.70;5.68;;;23.90;96.70;;;;;;4892310;29;20051;-75
2021/09/17 01:22:53;;;;;;;10.98;5.18;;;23.90;96.70;;;;;;4899031;29;20047;-75
2021/09/17 01:25:23;;;;;;;11.85;6.55;;;24.00;96.70;;;;;;4892847;29;20062;-76
2021/09/17 01:27:53;;;;;;;11.70;4.60;;;24.00;96.70;;;;;;4899550;29;20133;-74
2021/09/17 01:31:00;;;;;;;5.50;1.83;;;23.50;96.70;;;;;;4891520;29;20078;-75
2021/09/17 01:33:29;;;;;;;3.53;0.77;;;21.90;96.70;;;;;;4904595;29;20048;-74
2021/09/17 01:35:58;;;;;;;5.78;1.55;;;21.20;96.70;;;;;;4891458;29;20043;-74
2021/09/17 01:38:28;;;;;;;4.45;0.90;;;21.00;96.70;;;;;;4893263;29;20044;-74
2021/09/17 01:40:57;;;;;;;4.18;1.00;;;20.80;96.70;;;;;;4889516;29;20199;-74
2021/09/17 01:43:31;;;;;;;5.00;1.05;;;20.60;96.70;;;;;;4893949;29;20047;-74
2021/09/17 01:46:00;;;;;;;3.70;0.90;;;20.70;96.70;;;;;;4910658;29;20047;-74
2021/09/17 01:48:30;;;;;;;2.00;0.80;;;20.90;96.70;;;;;;4892237;29;20498;-74
2021/09/17 01:54:47;;;;;;;3.58;0.68;;;21.00;96.70;;;;;;4908486;29;20484;-74
2021/09/17 01:57:15;;;;;;;4.85;0.85;;;21.00;96.70;;;;;;4899642;29;20059;-74
2021/09/17 01:59:43;;;;;;;1.73;0.70;;;21.00;96.70;;;;;;4911792;29;20768;-74
2021/09/17 02:02:11;;;;;;;3.38;0.80;;;21.10;96.70;;;;;;4891471;29;20048;-74
2021/09/17 02:04:39;;;;;;;3.40;0.77;;;21.20;96.70;;;;;;4875912;29;20060;-74
2021/09/17 02:07:07;;;;;;;2.67;0.90;;;21.20;96.70;;;;;;4880301;29;20052;-74
2021/09/17 02:09:35;;;;;;;2.45;0.50;;;21.20;96.70;;;;;;4892032;29;20039;-74
2021/09/17 02:12:06;;;;;;;2.88;0.50;;;21.20;96.70;;;;;;4909489;29;20036;-75
2021/09/17 02:14:34;;;;;;;3.65;0.77;;;21.30;96.70;;;;;;4910033;29;20051;-75
2021/09/17 02:17:03;;;;;;;2.20;0.43;;;21.20;96.70;;;;;;4911533;29;20036;-75
2021/09/17 02:19:31;;;;;;;1.65;0.40;;;21.20;96.70;;;;;;4906138;29;20058;-75
2021/09/17 02:21:59;;;;;;;3.15;0.70;;;21.20;96.70;;;;;;4891523;29;20047;-75
2021/09/17 02:24:40;;;;;;;2.78;0.75;;;21.20;96.70;;;;;;4893941;29;20068;-75
2021/09/17 02:27:10;;;;;;;4.18;0.80;;;21.30;96.70;;;;;;4887181;29;20044;-75
2021/09/17 02:29:42;;;;;;;5.97;0.70;;;21.30;96.70;;;;;;4890634;29;20052;-75
2021/09/17 02:32:13;;;;;;;3.53;0.88;;;21.30;96.70;;;;;;4908722;29;20055;-75
2021/09/17 02:34:41;;;;;;;1.77;0.70;;;21.30;96.70;;;;;;4905403;29;20390;-75
2021/09/17 02:37:10;;;;;;;3.63;0.90;;;21.20;96.70;;;;;;4889394;29;20048;-75
2021/09/17 02:39:38;;;;;;;3.35;1.02;;;21.20;96.70;;;;;;4875698;29;20439;-75
2021/09/17 02:42:08;;;;;;;3.47;1.05;;;21.30;96.70;;;;;;4905243;29;20060;-74
2021/09/17 02:44:38;;;;;;;4.07;1.10;;;21.30;96.70;;;;;;4896475;29;20036;-75
2021/09/17 02:47:06;;;;;;;3.53;1.25;;;21.30;96.70;;;;;;4907873;29;20044;-75
2021/09/17 02:49:35;;;;;;;1.92;0.70;;;21.30;96.70;;;;;;4910995;29;20044;-76
2021/09/17 02:52:05;;;;;;;4.15;0.65;;;21.40;96.70;;;;;;4891628;29;20549;-76
2021/09/17 02:54:33;;;;;;;2.95;1.02;;;21.40;96.70;;;;;;4897421;29;20047;-76
2021/09/17 02:57:17;;;;;;;2.58;0.80;;;21.50;96.70;;;;;;4890323;29;20048;-76
2021/09/17 02:59:47;;;;;;;4.47;1.00;;;21.50;96.70;;;;;;4907821;29;20032;-76
2021/09/17 03:02:16;;;;;;;3.88;0.95;;;21.50;96.70;;;;;;4877060;29;20060;-76
2021/09/17 03:04:45;;;;;;;3.22;0.93;;;21.50;96.70;;;;;;4907108;29;20036;-76
2021/09/17 03:07:50;;;;;;;5.15;1.02;;;21.50;96.70;;;;;;4897197;29;20059;-76
2021/09/17 03:10:18;;;;;;;3.58;0.95;;;21.50;96.70;;;;;;4902095;29;20067;-76
2021/09/17 03:13:08;;;;;;;4.47;1.10;;;21.50;96.70;;;;;;4915411;29;20743;-74
2021/09/17 03:15:38;;;;;;;3.97;0.77;;;21.40;96.70;;;;;;4897140;29;20060;-74
2021/09/17 03:18:22;;;;;;;4.25;1.05;;;21.40;96.70;;;;;;4905072;29;20047;-75
2021/09/17 03:20:51;;;;;;;3.80;1.00;;;21.30;96.70;;;;;;4895341;29;20529;-75
2021/09/17 03:23:38;;;;;;;4.55;1.10;;;21.40;96.70;;;;;;4892467;29;20123;-75
2021/09/17 03:26:06;;;;;;;3.42;1.27;;;21.50;96.70;;;;;;4894801;29;20044;-74
2021/09/17 03:28:35;;;;;;;4.72;1.38;;;21.40;96.70;;;;;;4882896;29;20132;-75
2021/09/17 03:31:06;;;;;;;3.42;1.10;;;21.40;96.70;;;;;;4891879;29;20125;-75
2021/09/17 03:33:36;;;;;;;4.57;1.00;;;21.50;96.70;;;;;;4892039;29;20057;-74
2021/09/17 03:36:04;;;;;;;4.82;1.13;;;21.60;96.70;;;;;;4911604;29;20071;-74
2021/09/17 03:39:27;;;;;;;5.50;1.17;;;21.50;96.70;;;;;;4899036;29;20148;-74
2021/09/17 03:41:56;;;;;;;4.82;1.00;;;21.50;96.70;;;;;;4895625;29;20447;-74
2021/09/17 03:44:45;;;;;;;5.07;1.30;;;21.50;96.70;;;;;;4890378;29;20131;-74
2021/09/17 03:47:15;;;;;;;4.30;1.10;;;21.40;96.70;;;;;;4900362;29;20073;-74
2021/09/17 03:49:43;;;;;;;3.22;1.20;;;21.40;96.70;;;;;;4890836;29;20040;-74
2021/09/17 03:52:11;;;;;;;3.28;1.00;;;21.40;96.70;;;;;;4891503;29;20049;-75
2021/09/17 03:54:39;;;;;;;6.97;1.15;;;21.30;96.70;;;;;;4891485;29;20048;-74
2021/09/17 03:57:07;;;;;;;5.15;1.05;;;21.20;96.70;;;;;;4915704;29;20044;-74
2021/09/17 03:59:35;;;;;;;3.70;1.00;;;21.30;96.70;;;;;;4890519;29;20041;-74
2021/09/17 04:02:26;;;;;;;4.60;1.17;;;21.30;96.70;;;;;;4906696;29;20056;-74
2021/09/17 04:04:55;;;;;;;3.60;1.00;;;21.30;96.70;;;;;;4893731;29;20051;-74
2021/09/17 04:07:23;;;;;;;2.78;0.95;;;21.20;96.70;;;;;;4896077;29;20072;-74
2021/09/17 04:09:52;;;;;;;4.03;1.00;;;21.30;96.70;;;;;;4896221;29;20123;-74
2021/09/17 04:12:20;;;;;;;4.43;1.30;;;21.30;96.70;;;;;;4891351;29;20100;-74
2021/09/17 04:18:26;;;;;;;5.85;1.50;;;21.20;96.70;;;;;;4879538;29;20040;-74
2021/09/17 04:21:25;;;;;;;9.50;1.85;;;21.30;96.70;;;;;;4902166;29;20044;-75
2021/09/17 04:23:53;;;;;;;5.95;1.58;;;21.30;96.70;;;;;;4891137;29;20044;-75
2021/09/17 04:26:33;;;;;;;5.63;1.52;;;21.20;96.70;;;;;;4916915;29;20048;-75
2021/09/17 04:29:02;;;;;;;3.45;1.30;;;21.30;96.70;;;;;;4896171;29;20127;-74
2021/09/17 04:31:52;;;;;;;3.53;1.40;;;21.20;96.70;;;;;;4893636;29;20580;-74
2021/09/17 04:34:22;;;;;;;2.47;1.00;;;21.20;96.70;;;;;;4885654;29;20274;-75
2021/09/17 04:36:50;;;;;;;4.47;1.73;;;21.10;96.70;;;;;;4913283;29;20115;-75
2021/09/17 04:39:18;;;;;;;5.10;1.52;;;21.20;96.70;;;;;;4910508;29;20470;-74
2021/09/17 04:41:47;;;;;;;6.30;1.60;;;21.20;96.70;;;;;;4898226;29;20056;-75
2021/09/17 04:44:16;;;;;;;2.78;1.30;;;21.30;96.70;;;;;;4914569;29;20044;-75
2021/09/17 04:46:44;;;;;;;6.25;1.42;;;21.20;96.70;;;;;;4898690;29;20139;-74
2021/09/17 04:49:13;;;;;;;4.10;2.05;;;21.20;96.70;;;;;;4917923;29;20048;-75
2021/09/17 04:51:43;;;;;;;4.70;1.90;;;21.20;96.70;;;;;;4907348;29;20043;-75
2021/09/17 04:54:13;;;;;;;4.03;1.80;;;21.30;96.70;;;;;;4895630;29;20078;-75
2021/09/17 04:56:42;;;;;;;4.22;1.77;;;21.40;96.70;;;;;;4909914;29;20093;-75
2021/09/17 04:59:11;;;;;;;4.63;1.25;;;21.40;96.70;;;;;;4896202;29;20159;-75
2021/09/17 05:01:39;;;;;;;4.40;1.48;;;21.50;96.70;;;;;;4909484;29;20051;-74
2021/09/17 05:04:08;;;;;;;5.95;2.00;;;21.60;96.70;;;;;;4899557;29;20051;-75
2021/09/17 05:06:36;;;;;;;5.85;1.60;;;21.70;96.70;;;;;;4911831;29;20162;-75
2021/09/17 05:09:06;;;;;;;4.35;1.52;;;21.70;96.70;;;;;;4915424;29;20080;-75
2021/09/17 05:11:34;;;;;;;5.40;1.90;;;21.80;96.70;;;;;;4908354;29;20040;-75
2021/09/17 05:14:03;;;;;;;5.00;1.95;;;21.90;96.70;;;;;;4895603;29;20521;-75
2021/09/17 05:16:32;;;;;;;4.57;2.05;;;21.80;96.70;;;;;;4896387;29;20040;-75
2021/09/17 05:19:00;;;;;;;5.15;2.28;;;21.70;96.70;;;;;;4893087;29;20040;-75
2021/09/17 05:21:29;;;;;;;4.95;2.08;;;21.70;96.70;;;;;;4889290;29;20088;-75
2021/09/17 05:23:57;;;;;;;8.65;2.42;;;21.70;96.70;;;;;;4914661;29;20055;-75
2021/09/17 05:26:27;;;;;;;5.30;1.92;;;21.70;96.70;;;;;;4892244;29;20518;-74
2021/09/17 05:28:56;;;;;;;3.92;1.80;;;21.80;96.70;;;;;;4901812;29;20168;-75
2021/09/17 05:31:24;;;;;;;6.07;2.53;;;21.90;96.70;;;;;;4896860;29;20036;-75
2021/09/17 05:33:52;;;;;;;9.20;1.90;;;22.00;96.70;;;;;;4896984;29;20138;-75
2021/09/17 05:36:21;;;;;;;7.82;2.00;;;22.00;96.70;;;;;;4910014;29;20044;-75
2021/09/17 05:38:49;;;;;;;3.50;2.10;;;21.90;96.70;;;;;;4900683;29;20044;-75
2021/09/17 05:41:17;;;;;;;5.63;2.03;;;22.00;96.70;;;;;;4895474;29;20056;-75
2021/09/17 05:43:47;;;;;;;6.57;2.17;;;22.00;96.70;;;;;;4895499;29;20032;-75
2021/09/17 05:46:16;;;;;;;4.90;1.95;;;21.90;96.70;;;;;;4913628;29;20536;-75
2021/09/17 05:48:44;;;;;;;5.07;2.15;;;21.90;96.70;;;;;;4898136;29;20051;-75
2021/09/17 05:51:12;;;;;;;4.63;2.40;;;21.90;96.70;;;;;;4913304;29;20051;-75
2021/09/17 05:54:01;;;;;;;4.30;2.13;;;21.90;96.70;;;;;;4906315;29;20407;-75
2021/09/17 05:56:29;;;;;;;4.30;2.10;;;22.00;96.70;;;;;;4907009;29;20370;-75
2021/09/17 05:58:59;;;;;;;4.07;1.88;;;21.90;96.70;;;;;;4890806;29;20413;-75
2021/09/17 06:01:27;;;;;;;4.75;2.35;;;22.00;96.70;;;;;;4916193;29;20996;-75
2021/09/17 06:03:56;;;;;;;6.03;2.05;;;22.00;96.70;;;;;;4890619;29;20138;-75
2021/09/17 06:06:25;;;;;;;4.30;1.80;;;22.00;96.70;;;;;;4903882;29;20078;-75
2021/09/17 06:08:53;;;;;;;5.10;1.83;;;22.10;96.70;;;;;;4891569;29;20382;-75
2021/09/17 06:11:22;;;;;;;5.35;1.85;;;22.20;96.70;;;;;;4892338;29;20146;-75
2021/09/17 06:13:50;;;;;;;4.60;1.83;;;22.20;96.70;;;;;;4875406;29;20044;-75
2021/09/17 06:16:20;;;;;;;4.15;2.20;;;22.30;96.70;;;;;;4911473;29;20043;-75
2021/09/17 06:18:48;;;;;;;7.95;2.75;;;22.30;96.70;;;;;;4892301;29;20056;-75
2021/09/17 06:21:17;;;;;;;3.72;2.05;;;22.40;96.70;;;;;;4899640;29;20131;-75
2021/09/17 06:23:45;;;;;;;8.43;2.70;;;22.40;96.70;;;;;;4891743;29;20060;-75
2021/09/17 06:26:14;;;;;;;5.47;2.88;;;22.40;96.70;;;;;;4891933;29;20463;-75
2021/09/17 06:28:42;;;;;;;9.48;3.60;;;22.50;96.70;;;;;;4891670;29;20077;-75
2021/09/17 06:31:10;;;;;;;16.48;4.28;;;22.50;96.70;;;;;;4896918;29;20454;-75
2021/09/17 06:33:40;;;;;;;11.52;4.40;;;22.60;96.70;;;;;;4890655;29;20076;-75
2021/09/17 06:36:09;;;;;;;12.55;4.43;;;22.50;96.70;;;;;;4909041;29;20060;-75
2021/09/17 06:38:37;;;;;;;12.00;4.88;;;22.50;96.70;;;;;;4891486;29;20071;-75
2021/09/17 06:41:06;;;;;;;15.18;4.80;;;22.40;96.70;;;;;;4896592;29;20055;-75
2021/09/17 06:43:34;;;;;;;10.75;3.55;;;22.50;96.70;;;;;;4901576;29;20036;-75
2021/09/17 06:46:03;;;;;;;10.13;2.70;;;22.50;96.70;;;;;;4912692;29;20048;-75
2021/09/17 06:48:32;;;;;;;9.48;2.70;;;22.50;96.70;;;;;;4915909;29;20044;-75
2021/09/17 06:51:02;;;;;;;6.47;2.97;;;22.50;96.70;;;;;;4898951;29;20127;-75
2021/09/17 06:53:30;;;;;;;6.22;2.55;;;22.40;96.70;;;;;;4901185;29;20582;-75
2021/09/17 06:55:59;;;;;;;11.57;3.13;;;22.50;96.70;;;;;;4920729;29;20498;-75
2021/09/17 06:58:33;;;;;;;11.70;3.25;;;22.50;96.70;;;;;;4886473;29;20138;-75
2021/09/17 07:01:02;;;;;;;12.00;3.25;;;22.50;96.70;;;;;;4899004;29;20095;-75
2021/09/17 07:03:31;;;;;;;7.63;3.35;;;22.60;96.70;;;;;;4920689;29;20048;-75
2021/09/17 07:06:02;;;;;;;6.50;3.30;;;22.70;96.70;;;;;;4914707;29;20052;-75
2021/09/17 07:08:30;;;;;;;7.47;2.88;;;22.80;96.70;;;;;;4904256;29;20490;-75
2021/09/17 07:10:58;;;;;;;6.93;2.70;;;22.80;96.70;;;;;;4912882;29;20560;-75
2021/09/17 07:13:27;;;;;;;8.32;3.28;;;22.80;96.70;;;;;;4908819;29;20114;-75
2021/09/17 07:15:56;;;;;;;10.38;3.20;;;22.80;96.70;;;;;;4896019;29;20062;-75
2021/09/17 07:18:24;;;;;;;7.30;3.42;;;22.80;96.70;;;;;;4927014;29;20093;-75
2021/09/17 07:20:54;;;;;;;10.85;3.70;;;22.90;96.70;;;;;;4900506;29;20056;-75
2021/09/17 07:23:24;;;;;;;8.93;3.08;;;23.00;96.70;;;;;;4915694;29;20056;-74
2021/09/17 07:25:52;;;;;;;9.75;4.40;;;23.00;96.70;;;;;;4881189;29;20063;-75
2021/09/17 07:28:21;;;;;;;12.00;5.05;;;23.00;96.70;;;;;;4905628;29;20139;-75
2021/09/17 07:30:49;;;;;;;12.68;4.82;;;23.00;96.70;;;;;;4914110;29;20474;-75
2021/09/17 07:33:17;;;;;;;12.07;4.50;;;23.10;96.70;;;;;;4899723;29;20299;-75
2021/09/17 07:35:46;;;;;;;14.18;5.30;;;23.20;96.70;;;;;;4904721;29;20054;-75
2021/09/17 07:38:14;;;;;;;9.90;4.63;;;23.10;96.70;;;;;;4915791;29;20052;-75
2021/09/17 07:40:44;;;;;;;14.70;5.05;;;23.10;96.70;;;;;;4898431;29;20048;-75
2021/09/17 07:43:13;;;;;;;14.20;5.35;;;23.20;96.70;;;;;;4914093;29;20084;-75
2021/09/17 07:45:41;;;;;;;10.98;5.38;;;23.30;96.70;;;;;;4898984;29;20493;-75
2021/09/17 07:48:10;;;;;;;13.75;4.97;;;23.40;96.70;;;;;;4911599;29;20449;-76
2021/09/17 07:50:39;;;;;;;13.10;4.88;;;23.40;96.70;;;;;;4898962;29;20032;-75
2021/09/17 07:53:07;;;;;;;11.85;3.17;;;23.60;96.70;;;;;;4924155;29;20100;-76
2021/09/17 07:55:37;;;;;;;9.07;3.28;;;23.60;96.70;;;;;;4912695;29;20044;-75
2021/09/17 07:58:07;;;;;;;10.40;2.55;;;23.70;96.70;;;;;;4910656;29;20044;-75
2021/09/17 08:00:35;;;;;;;6.80;3.05;;;23.80;96.70;;;;;;4906437;29;20047;-75
2021/09/17 08:03:04;;;;;;;6.00;2.00;;;23.90;96.70;;;;;;4917486;29;20119;-75
2021/09/17 08:05:33;;;;;;;11.27;3.55;;;23.90;96.70;;;;;;4897236;29;20052;-75
2021/09/17 08:08:02;;;;;;;11.85;4.13;;;24.00;96.70;;;;;;4879953;29;20447;-74
2021/09/17 08:10:30;;;;;;;12.23;4.65;;;24.10;96.70;;;;;;4898887;29;20768;-75
2021/09/17 08:12:58;;;;;;;11.38;3.70;;;24.10;96.70;;;;;;4891281;29;21040;-74
2021/09/17 08:15:28;;;;;;;20.50;6.65;;;24.10;96.70;;;;;;4911502;29;20044;-75
2021/09/17 08:17:57;;;;;;;13.40;6.68;;;24.20;96.70;;;;;;4910911;29;20108;-74
2021/09/17 08:20:25;;;;;;;9.45;4.00;;;24.30;96.70;;;;;;4898313;29;20056;-74
2021/09/17 08:22:54;;;;;;;10.65;3.92;;;24.40;96.70;;;;;;4910664;29;20048;-74
2021/09/17 08:25:23;;;;;;;9.02;3.22;;;24.50;96.70;;;;;;4915262;29;20505;-75
2021/09/17 08:27:51;;;;;;;10.27;3.47;;;24.50;96.70;;;;;;4894293;29;20056;-75
2021/09/17 08:30:19;;;;;;;7.25;2.75;;;24.70;96.70;;;;;;4917013;29;20048;-75
2021/09/17 08:32:51;;;;;;;7.78;3.10;;;24.80;96.70;;;;;;4907693;29;20081;-75
2021/09/17 08:35:20;;;;;;;9.13;2.85;;;24.90;96.70;;;;;;4906923;29;20089;-75
2021/09/17 08:37:49;;;;;;;7.05;2.75;;;24.80;96.70;;;;;;4895526;29;20122;-75
2021/09/17 08:40:19;;;;;;;5.15;2.92;;;24.80;96.70;;;;;;4896559;29;20059;-74
2021/09/17 08:42:48;;;;;;;9.02;3.47;;;24.70;96.70;;;;;;4893065;29;20561;-75
2021/09/17 08:45:16;;;;;;;17.42;3.88;;;24.60;96.70;;;;;;4900752;29;20056;-74
2021/09/17 08:47:47;;;;;;;10.10;3.33;;;24.60;96.70;;;;;;4910716;29;20130;-76
2021/09/17 08:50:18;;;;;;;6.57;3.33;;;24.50;96.70;;;;;;4893279;29;20071;-74
2021/09/17 08:52:48;;;;;;;9.23;3.05;;;24.30;96.70;;;;;;4910030;29;20099;-74
2021/09/17 08:55:16;;;;;;;7.13;3.17;;;24.30;96.70;;;;;;4915301;29;20048;-75
2021/09/17 08:57:45;;;;;;;5.70;2.80;;;24.40;96.70;;;;;;4912395;29;20546;-75
2021/09/17 09:00:40;;;;;;;6.47;2.70;;;24.50;96.70;;;;;;4893898;29;20076;-75
2021/09/17 09:03:09;;;;;;;6.03;2.53;;;24.60;96.70;;;;;;4889343;29;20048;-75
2021/09/17 09:05:41;;;;;;;8.05;2.85;;;24.70;96.70;;;;;;4895025;29;20054;-75
2021/09/17 09:08:09;;;;;;;6.78;2.60;;;24.90;96.70;;;;;;4876726;29;20558;-75
2021/09/17 09:10:38;;;;;;;6.50;2.70;;;25.10;96.70;;;;;;4896025;29;20045;-75
2021/09/17 09:13:07;;;;;;;8.13;2.30;;;25.10;96.70;;;;;;4890907;29;20080;-74
2021/09/17 09:15:36;;;;;;;10.23;2.50;;;25.00;96.70;;;;;;4910751;29;20044;-74
2021/09/17 09:18:10;;;;;;;6.53;2.75;;;25.10;96.70;;;;;;4879305;29;20060;-74
2021/09/17 09:20:41;;;;;;;9.18;3.17;;;25.10;96.70;;;;;;4887365;29;20048;-74
2021/09/17 09:23:13;;;;;;;9.43;3.17;;;25.30;96.70;;;;;;4912106;29;20048;-74
2021/09/17 09:25:58;;;;;;;8.80;3.05;;;25.40;96.70;;;;;;4891127;29;20144;-81
2021/09/17 09:28:30;;;;;;;12.73;3.70;;;25.50;96.70;;;;;;4893111;29;20072;-77
2021/09/17 09:31:03;;;;;;;8.00;3.17;;;25.00;96.70;;;;;;4909868;29;20189;-74
2021/09/17 09:33:34;;;;;;;9.05;2.97;;;24.50;96.70;;;;;;4903253;29;20052;-74
2021/09/17 09:36:08;;;;;;;8.02;3.28;;;24.60;96.70;;;;;;4894947;29;20056;-75
2021/09/17 09:38:41;;;;;;;9.27;2.65;;;24.50;96.70;;;;;;4894932;29;20044;-74
2021/09/17 09:41:13;;;;;;;7.32;2.70;;;24.20;96.70;;;;;;4909410;29;20040;-74
2021/09/17 09:43:49;;;;;;;11.75;2.70;;;24.00;96.70;;;;;;4916222;29;20047;-74
2021/09/17 09:46:28;;;;;;;10.27;3.13;;;24.10;96.70;;;;;;4910775;29;20055;-75
2021/09/17 09:49:09;;;;;;;11.60;3.72;;;24.10;96.70;;;;;;4875542;29;20052;-74
2021/09/17 09:51:52;;;;;;;8.30;3.00;;;24.20;96.70;;;;;;4874614;29;20101;-75
2021/09/17 09:54:23;;;;;;;6.45;3.08;;;24.30;96.70;;;;;;4887089;29;20044;-75
2021/09/17 09:56:52;;;;;;;8.25;2.92;;;24.40;96.70;;;;;;4890843;29;20566;-76
2021/09/17 09:59:24;;;;;;;8.77;2.83;;;24.40;96.70;;;;;;4876456;29;20040;-75
2021/09/17 10:01:58;;;;;;;11.07;3.30;;;24.40;96.70;;;;;;4916997;29;20128;-77
2021/09/17 10:04:28;;;;;;;7.53;3.30;;;24.50;96.70;;;;;;4908916;29;20044;-76
2021/09/17 10:07:06;;;;;;;9.68;3.40;;;24.70;96.70;;;;;;4916935;29;20046;-76
2021/09/17 10:09:36;;;;;;;7.18;2.55;;;25.00;96.70;;;;;;4909368;29;20047;-81
2021/09/17 10:12:07;;;;;;;7.75;2.30;;;25.20;96.70;;;;;;4878241;29;20407;-77
2021/09/17 10:14:37;;;;;;;10.52;3.60;;;25.40;96.70;;;;;;4904834;29;20094;-77
2021/09/17 10:17:08;;;;;;;11.20;2.60;;;25.60;96.70;;;;;;4913016;29;20044;-77
2021/09/17 10:19:37;;;;;;;6.60;2.53;;;25.50;96.70;;;;;;4907666;29;20115;-77
2021/09/17 10:22:07;;;;;;;9.38;2.92;;;25.60;96.70;;;;;;4910129;29;20048;-77
2021/09/17 10:24:42;;;;;;;6.68;2.88;;;25.80;96.70;;;;;;4891874;29;20182;-83
2021/09/17 10:27:19;;;;;;;8.10;2.83;;;25.60;96.70;;;;;;4912731;29;20119;-81
2021/09/17 10:29:59;;;;;;;7.00;2.55;;;25.50;96.70;;;;;;4884808;29;20048;-79
2021/09/17 10:32:36;;;;;;;8.07;2.30;;;25.60;96.70;;;;;;4887665;29;20040;-80
2021/09/17 10:35:12;;;;;;;6.95;2.10;;;26.00;96.70;;;;;;4892000;29;20406;-80
2021/09/17 10:38:09;;;;;;;9.63;2.70;;;26.30;96.70;;;;;;4894263;29;20036;-79
2021/09/17 10:41:03;;;;;;;10.10;2.72;;;26.70;96.70;;;;;;4916134;29;20482;-80
2021/09/17 10:43:37;;;;;;;6.75;2.45;;;26.80;96.70;;;;;;4895755;29;20043;-81
2021/09/17 10:46:37;;;;;;;7.03;2.08;;;26.70;96.70;;;;;;4907321;29;20079;-79
2021/09/17 10:49:05;;;;;;;7.88;2.03;;;26.70;96.70;;;;;;4913328;29;20064;-81
2021/09/17 10:51:37;;;;;;;7.30;1.73;;;26.80;96.70;;;;;;4894958;29;20048;-80
2021/09/17 10:54:09;;;;;;;8.05;2.35;;;27.00;96.70;;;;;;4907781;29;20040;-80
2021/09/17 10:57:03;;;;;;;5.18;2.30;;;26.80;96.70;;;;;;4909919;29;20044;-80
2021/09/17 10:59:42;;;;;;;4.75;1.92;;;26.50;96.70;;;;;;4890461;29;20055;-80
2021/09/17 11:02:11;;;;;;;4.20;1.42;;;26.30;96.70;;;;;;4892479;29;20044;-80
2021/09/17 11:04:43;;;;;;;6.20;2.70;;;26.40;96.70;;;;;;4882321;29;20542;-80
2021/09/17 11:07:35;;;;;;;6.90;1.80;;;26.70;96.70;;;;;;4908572;29;20051;-79
2021/09/17 11:10:24;;;;;;;5.78;2.05;;;27.00;96.70;;;;;;4911538;29;20052;-79
2021/09/17 11:13:05;;;;;;;5.03;2.40;;;26.90;96.70;;;;;;4874558;29;20148;-80
2021/09/17 11:15:33;;;;;;;7.13;1.92;;;27.00;96.70;;;;;;4915318;29;20056;-80
2021/09/17 11:18:08;;;;;;;7.32;2.08;;;27.40;96.70;;;;;;4909025;29;20036;-81
2021/09/17 11:20:36;;;;;;;4.13;1.85;;;27.20;96.70;;;;;;4909043;29;20044;-79
2021/09/17 11:23:06;;;;;;;5.35;1.67;;;27.20;96.70;;;;;;4883822;29;20047;-80
2021/09/17 11:25:39;;;;;;;3.55;1.50;;;27.30;96.70;;;;;;4889910;29;20127;-81
2021/09/17 11:28:29;;;;;;;5.68;1.33;;;27.50;96.70;;;;;;4910775;29;20059;-81
2021/09/17 11:31:09;;;;;;;3.90;1.70;;;27.70;96.70;;;;;;4906388;29;20052;-80
2021/09/17 11:33:38;;;;;;;4.47;1.42;;;27.50;96.70;;;;;;4916841;29;20048;-81
2021/09/17 11:36:07;;;;;;;5.43;1.30;;;27.60;96.70;;;;;;4894729;29;20110;-81
2021/09/17 11:38:35;;;;;;;5.85;1.25;;;27.40;96.70;;;;;;4912051;29;20055;-82
2021/09/17 11:41:05;;;;;;;2.33;1.05;;;27.40;96.70;;;;;;4893546;29;20524;-81
2021/09/17 11:43:42;;;;;;;3.92;1.30;;;27.50;96.70;;;;;;4917318;29;20079;-81
2021/09/17 11:46:09;;;;;;;;;;;27.60;96.70;;;;;;4895467;29;20067;-80
2021/09/17 11:48:38;;;;;;;2.45;1.02;;;27.80;96.70;;;;;;4903924;29;20396;-80
2021/09/17 11:51:11;;;;;;;5.03;1.33;;;27.80;96.70;;;;;;4896033;29;20059;-80
2021/09/17 11:53:44;;;;;;;5.10;1.65;;;27.90;96.70;;;;;;4879490;29;20056;-81
2021/09/17 11:56:15;;;;;;;5.70;1.27;;;27.90;96.70;;;;;;4914651;29;20146;-80
2021/09/17 11:58:44;;;;;;;4.35;1.55;;;28.00;96.70;;;;;;4893393;29;20498;-79
2021/09/17 12:01:19;;;;;;;5.07;1.75;;;28.10;96.70;;;;;;4893062;29;20507;-81
2021/09/17 12:03:48;;;;;;;4.75;1.48;;;28.30;96.70;;;;;;4912821;29;20451;-80
2021/09/17 12:06:22;;;;;;;3.80;1.52;;;28.30;96.70;;;;;;4917971;29;20659;-82
2021/09/17 12:08:57;;;;;;;7.07;1.95;;;28.00;96.70;;;;;;4893869;29;20047;-80
2021/09/17 12:11:27;;;;;;;5.63;1.92;;;27.90;96.70;;;;;;4912292;29;20048;-80
2021/09/17 12:13:56;;;;;;;5.55;1.60;;;28.00;96.70;;;;;;4893142;29;20395;-81
2021/09/17 12:16:25;;;;;;;4.05;1.60;;;28.00;96.70;;;;;;4915486;29;20058;-82
2021/09/17 12:19:04;;;;;;;4.93;1.33;;;28.10;96.70;;;;;;4909423;29;20100;-81
2021/09/17 12:21:32;;;;;;;6.38;1.63;;;28.10;96.70;;;;;;4919526;29;20062;-79
2021/09/17 12:24:19;;;;;;;6.28;1.65;;;28.00;96.70;;;;;;4893050;29;20059;-80
2021/09/17 12:26:54;;;;;;;4.25;1.70;;;27.80;96.70;;;;;;4898828;29;20075;-80
2021/09/17 12:29:23;;;;;;;3.92;1.60;;;27.40;96.70;;;;;;4911353;29;20071;-81
2021/09/17 12:31:52;;;;;;;3.13;1.52;;;27.50;96.70;;;;;;4899304;29;20050;-80
2021/09/17 12:34:22;;;;;;;4.15;1.30;;;27.50;96.70;;;;;;4912303;29;20103;-80
2021/09/17 12:36:52;;;;;;;3.88;1.42;;;27.50;96.70;;;;;;4889120;29;20080;-81
2021/09/17 12:39:23;;;;;;;6.38;1.63;;;27.70;96.70;;;;;;4879010;29;20506;-79
2021/09/17 12:42:07;;;;;;;6.28;1.38;;;27.80;96.70;;;;;;4899850;29;20502;-80
2021/09/17 12:44:40;;;;;;;3.60;1.55;;;27.70;96.70;;;;;;4891607;29;20047;-79
2021/09/17 12:47:08;;;;;;;7.25;1.50;;;27.40;96.70;;;;;;4893689;29;20083;-80
2021/09/17 12:49:36;;;;;;;4.72;1.50;;;27.10;96.70;;;;;;4894994;29;20167;-82
2021/09/17 12:52:07;;;;;;;5.32;1.63;;;27.20;96.70;;;;;;4893270;29;20052;-80
2021/09/17 12:54:36;;;;;;;5.82;1.63;;;27.50;96.70;;;;;;4916025;29;20048;-80
2021/09/17 12:57:17;;;;;;;6.20;1.25;;;27.60;96.70;;;;;;4915823;29;20048;-80
2021/09/17 12:59:59;;;;;;;3.78;1.45;;;27.30;96.70;;;;;;4910834;29;20052;-80
2021/09/17 13:02:28;;;;;;;5.57;1.90;;;27.30;96.70;;;;;;4893386;29;20043;-79
2021/09/17 13:04:58;;;;;;;8.15;1.70;;;27.40;96.70;;;;;;4911674;29;20056;-80
2021/09/17 13:07:27;;;;;;;7.03;1.60;;;27.40;96.70;;;;;;4893685;29;20050;-80
2021/09/17 13:09:55;;;;;;;5.50;1.60;;;27.70;96.70;;;;;;4913572;29;20067;-80
2021/09/17 13:12:26;;;;;;;6.47;1.63;;;27.70;96.70;;;;;;4910443;29;20055;-81
2021/09/17 13:14:55;;;;;;;4.80;1.55;;;27.40;96.70;;;;;;4884113;29;20107;-84
2021/09/17 13:17:23;;;;;;;7.63;2.00;;;27.40;96.70;;;;;;4894395;29;20044;-81
2021/09/17 13:19:52;;;;;;;5.53;1.42;;;27.70;96.70;;;;;;4910271;29;20521;-77
2021/09/17 13:22:20;;;;;;;6.35;1.60;;;27.90;96.70;;;;;;4909856;29;20038;-78
2021/09/17 13:24:48;;;;;;;8.82;2.20;;;28.00;96.70;;;;;;4892029;29;20065;-77